Time;durP1;ratioP1;P1;durP2;ratioP2;P2;SDS_P1;SDS_P2;PMS_P1;PMS_P2;Temp;Humidity;BMP_temperature;BMP_pressure;BME280_temperature;BME280_humidity;BME280_pressure;Samples;Min_cycle;Max_cycle;Signal;HPM_P1;HPM_P2
2022/01/28 00:01:07;;;;;;;12.73;10.63;;;;;;;26.12;23.06;98134.58;1773039;79;21054;-61
2022/01/28 00:03:35;;;;;;;14.15;11.70;;;;;;;25.44;23.89;98129.00;1774638;79;20919;-61
2022/01/28 00:06:03;;;;;;;14.18;11.05;;;;;;;25.35;23.96;98132.95;1770296;79;20981;-60
2022/01/28 00:08:29;;;;;;;14.95;11.30;;;;;;;25.31;23.83;98129.22;1766473;79;20979;-60
2022/01/28 00:10:58;;;;;;;14.00;11.65;;;;;;;25.36;23.91;98124.23;1761581;81;20947;-61
2022/01/28 00:13:30;;;;;;;11.70;10.38;;;;;;;25.27;23.95;98126.01;1773350;79;20841;-60
2022/01/28 00:16:20;;;;;;;13.25;10.90;;;;;;;25.29;24.02;98127.91;1772721;79;21521;-61
2022/01/28 00:40:22;;;;;;;12.60;10.35;;;;;;;24.62;24.36;98123.70;1773260;81;20923;-60
2022/01/28 00:42:48;;;;;;;11.10;9.65;;;;;;;24.65;24.19;98119.87;1773210;79;21042;-61
2022/01/28 00:45:14;;;;;;;13.95;12.05;;;;;;;24.73;24.16;98121.11;1773979;79;20868;-61
2022/01/28 00:47:41;;;;;;;13.83;11.00;;;;;;;24.70;24.19;98125.23;1773800;79;20914;-59
2022/01/28 00:50:08;;;;;;;13.30;11.15;;;;;;;24.78;24.11;98119.67;1774759;79;21100;-59
2022/01/28 00:52:36;;;;;;;14.35;11.50;;;;;;;24.81;24.02;98112.33;1773053;79;21009;-58
2022/01/28 00:55:04;;;;;;;12.60;11.20;;;;;;;24.90;23.77;98120.06;1773437;81;20948;-60
2022/01/28 00:57:30;;;;;;;12.73;11.00;;;;;;;24.89;23.78;98129.34;1768036;79;20924;-59
2022/01/28 00:59:57;;;;;;;13.00;10.98;;;;;;;24.98;23.63;98122.92;1775916;80;20990;-60
2022/01/28 01:02:23;;;;;;;11.80;10.60;;;;;;;24.88;23.32;98121.73;1788491;78;21215;-59
2022/01/28 01:04:50;;;;;;;12.68;10.55;;;;;;;24.96;23.38;98120.25;1787699;80;20980;-59
2022/01/28 01:07:17;;;;;;;11.73;10.30;;;;;;;24.71;23.65;98122.78;1787709;78;20942;-59
2022/01/28 01:09:45;;;;;;;13.88;10.18;;;;;;;24.73;23.39;98106.16;1788472;78;20942;-60
2022/01/28 01:12:12;;;;;;;11.88;10.60;;;;;;;24.78;23.41;98104.20;1779336;78;21443;-59
2022/01/28 01:14:39;;;;;;;12.35;10.80;;;;;;;24.92;23.14;98103.73;1785370;78;21181;-59
2022/01/28 01:17:30;;;;;;;12.03;10.68;;;;;;;25.07;22.99;98108.92;1786988;79;20925;-61
2022/01/28 01:19:38;;;;;;;11.20;9.85;;;;;;;25.10;22.90;98104.80;1782787;80;20919;-60
2022/01/28 01:22:07;;;;;;;11.20;9.95;;;;;;;25.11;22.47;98095.52;1788339;78;20923;-60
2022/01/28 01:24:37;;;;;;;13.32;10.75;;;;;;;25.07;22.52;98098.59;1788432;78;20876;-60
2022/01/28 01:27:03;;;;;;;12.25;10.95;;;;;;;25.04;22.43;98092.38;1786950;80;22105;-59
2022/01/28 01:29:29;;;;;;;12.78;10.93;;;;;;;25.02;22.26;98093.23;1787583;79;20887;-59
2022/01/28 01:32:04;;;;;;;12.30;10.80;;;;;;;25.00;22.11;98075.05;1789113;78;20879;-60
2022/01/28 01:34:30;;;;;;;14.23;12.58;;;;;;;25.03;21.87;98081.23;1787966;78;20970;-61
2022/01/28 01:36:56;;;;;;;13.40;11.93;;;;;;;24.96;21.71;98072.10;1775701;78;21002;-59
2022/01/28 01:39:26;;;;;;;13.58;12.00;;;;;;;24.88;21.55;98073.31;1789019;78;21062;-60
2022/01/28 01:42:11;;;;;;;13.65;11.93;;;;;;;24.95;21.37;98069.11;1787290;78;21379;-60
2022/01/28 01:44:37;;;;;;;14.53;12.07;;;;;;;24.94;21.34;98065.34;1784313;78;21485;-60
2022/01/28 01:52:00;;;;;;;13.80;12.40;;;;;;;24.92;21.28;98061.57;1751212;80;21002;-61
2022/01/28 01:52:23;;;;;;;12.23;10.85;;;;;;;25.04;21.38;98057.83;1788438;78;21146;-60
2022/01/28 01:54:50;;;;;;;12.75;11.43;;;;;;;25.11;21.35;98062.87;1788263;78;20984;-60
2022/01/28 01:57:17;;;;;;;14.07;12.35;;;;;;;25.10;21.28;98053.92;1787268;80;20954;-59
2022/01/28 01:59:44;;;;;;;13.45;11.97;;;;;;;25.03;21.22;98048.03;1775131;79;20884;-61
2022/01/28 02:02:11;;;;;;;13.50;11.73;;;;;;;25.31;20.93;98049.48;1773344;81;20924;-59
2022/01/28 02:04:37;;;;;;;12.85;11.48;;;;;;;25.42;20.91;98057.14;1773710;79;21032;-60
2022/01/28 02:07:05;;;;;;;13.38;11.97;;;;;;;25.46;20.70;98055.48;1773696;79;20915;-59
2022/01/28 02:09:32;;;;;;;13.43;12.00;;;;;;;25.43;20.61;98053.33;1773830;79;20880;-60
2022/01/28 02:11:58;;;;;;;14.75;12.68;;;;;;;25.46;20.47;98042.42;1773288;79;20931;-61
2022/01/28 02:14:25;;;;;;;17.17;13.72;;;;;;;25.59;20.28;98051.97;1774824;79;20944;-60
2022/01/28 02:16:51;;;;;;;14.50;13.00;;;;;;;25.62;20.21;98047.84;1772597;81;21155;-60
2022/01/28 02:19:18;;;;;;;14.15;12.63;;;;;;;25.42;20.33;98050.34;1773293;79;20924;-59
2022/01/28 02:21:48;;;;;;;14.13;12.63;;;;;;;25.43;20.24;98039.72;1774553;79;20883;-59
2022/01/28 02:24:16;;;;;;;15.20;13.60;;;;;;;25.42;20.30;98046.25;1774032;79;20904;-59
2022/01/28 02:26:41;;;;;;;15.88;13.93;;;;;;;25.44;20.27;98046.78;1767126;79;20987;-61
2022/01/28 02:29:12;;;;;;;14.13;12.55;;;;;;;25.47;20.22;98050.27;1773355;81;21149;-59
2022/01/28 02:31:36;;;;;;;15.83;13.65;;;;;;;25.65;20.05;98043.16;1772808;80;21161;-60
2022/01/28 02:34:05;;;;;;;14.15;12.70;;;;;;;25.42;20.25;98040.81;1773208;81;20884;-61
2022/01/28 02:36:31;;;;;;;15.10;12.68;;;;;;;25.40;20.35;98042.22;1769390;79;20852;-60
2022/01/28 02:39:00;;;;;;;14.60;12.90;;;;;;;25.46;20.32;98045.14;1763891;79;20968;-61
2022/01/28 02:41:31;;;;;;;15.83;13.55;;;;;;;25.50;20.45;98047.50;1771023;79;21193;-60
2022/01/28 02:44:11;;;;;;;14.87;13.38;;;;;;;25.55;20.26;98043.35;1773179;80;20932;-60
2022/01/28 02:46:31;;;;;;;13.32;11.93;;;;;;;25.57;20.23;98033.77;1772882;79;21469;-61
2022/01/28 02:49:07;;;;;;;13.55;12.15;;;;;;;25.54;20.26;98034.92;1761691;79;20982;-60
2022/01/28 02:51:29;;;;;;;14.30;11.25;;;;;;;25.52;20.29;98033.87;1765882;79;20920;-61
2022/01/28 02:53:59;;;;;;;13.55;11.68;;;;;;;25.57;20.17;98038.41;1769652;79;21141;-60
2022/01/28 02:56:37;;;;;;;14.70;11.85;;;;;;;25.61;20.10;98032.05;1770649;79;21039;-60
2022/01/28 02:58:53;;;;;;;14.98;12.73;;;;;;;25.77;20.10;98025.75;1772768;80;21492;-61
2022/01/28 03:01:20;;;;;;;14.68;12.70;;;;;;;25.80;20.22;98022.42;1760395;80;21671;-61
2022/01/28 03:03:49;;;;;;;17.30;13.62;;;;;;;25.76;20.23;98024.93;1764867;78;20956;-61
2022/01/28 03:06:19;;;;;;;19.55;13.95;;;;;;;25.82;20.14;98031.63;1790404;78;21088;-60
2022/01/28 03:16:35;;;;;;;12.82;11.50;;;;;;;25.43;20.17;98016.58;1760792;78;20910;-61
2022/01/28 03:19:14;;;;;;;13.08;11.68;;;;;;;25.44;20.11;98010.58;1790836;78;21156;-60
2022/01/28 03:24:00;;;;;;;11.88;10.68;;;;;;;25.65;20.43;98011.26;1790510;80;21393;-60
2022/01/28 03:26:28;;;;;;;12.05;10.70;;;;;;;25.67;20.60;98013.15;1790938;78;20974;-60
2022/01/28 03:28:54;;;;;;;11.65;9.40;;;;;;;25.76;20.82;98009.14;1789831;80;20911;-58
2022/01/28 03:31:21;;;;;;;12.58;9.95;;;;;;;25.86;20.84;98013.59;1791032;78;21520;-59
2022/01/28 03:33:48;;;;;;;12.43;10.28;;;;;;;25.95;35.10;98012.56;1790378;78;20903;-62
2022/01/28 03:36:14;;;;;;;12.50;10.95;;;;;;;25.83;21.23;98015.01;1790399;79;20923;-60
2022/01/28 03:38:42;;;;;;;12.65;9.90;;;;;;;25.60;21.06;98008.64;1790033;80;20974;-60
2022/01/28 03:41:17;;;;;;;11.63;10.32;;;;;;;25.52;21.00;98012.64;1790445;79;21520;-60
2022/01/28 03:43:40;;;;;;;10.28;9.20;;;;;;;25.48;20.82;98012.42;1790167;78;21197;-60
2022/01/28 03:46:07;;;;;;;13.03;9.93;;;;;;;25.48;20.77;98005.62;1790258;80;20998;-60
2022/01/28 03:48:33;;;;;;;11.20;9.90;;;;;;;25.44;20.70;98007.31;1790856;78;20879;-59
2022/01/28 03:51:00;;;;;;;10.48;9.38;;;;;;;25.49;20.62;98015.96;1790330;79;20973;-61
2022/01/28 03:53:26;;;;;;;10.40;9.25;;;;;;;25.33;20.67;98016.77;1790360;80;21030;-59
2022/01/28 03:55:56;;;;;;;10.08;8.60;;;;;;;25.28;20.69;98012.78;1790984;78;21130;-60
2022/01/28 03:58:21;;;;;;;10.90;9.63;;;;;;;25.35;20.60;98009.11;1790423;78;20935;-59
2022/01/28 04:00:48;;;;;;;10.48;9.28;;;;;;;25.42;20.55;98003.28;1790925;78;20927;-60
2022/01/28 04:11:40;;;;;;;10.77;9.67;;;;;;;25.78;20.32;97995.47;1780414;80;20863;-59
2022/01/28 04:13:49;;;;;;;13.58;9.33;;;;;;;25.86;20.20;97984.99;1782101;80;20919;-60
2022/01/28 04:16:28;;;;;;;9.90;8.90;;;;;;;25.83;20.15;97993.77;1790715;78;20977;-60
2022/01/28 04:18:43;;;;;;;14.68;11.00;;;;;;;25.85;20.06;97990.17;1787695;80;21539;-60
2022/01/28 04:21:09;;;;;;;14.70;10.48;;;;;;;25.95;19.98;97992.68;1790282;80;21117;-59
2022/01/28 04:23:36;;;;;;;11.90;9.80;;;;;;;25.68;20.22;97988.09;1777971;79;21440;-59
2022/01/28 04:26:02;;;;;;;10.63;9.55;;;;;;;25.56;20.57;97983.69;1790310;79;21430;-60
2022/01/28 04:28:30;;;;;;;14.58;10.55;;;;;;;25.41;20.50;97983.41;1790790;78;20989;-60
2022/01/28 04:30:57;;;;;;;12.53;10.23;;;;;;;25.46;20.47;97975.17;1736932;81;21031;-60
2022/01/28 04:33:24;;;;;;;12.60;10.13;;;;;;;25.39;20.44;97973.94;1732808;82;21309;-60
2022/01/28 04:35:54;;;;;;;14.83;10.98;;;;;;;25.34;20.50;97968.02;1732905;82;21106;-60
2022/01/28 04:41:13;;;;;;;10.48;9.18;;;;;;;25.26;20.53;97951.05;1755889;81;20934;-60
2022/01/28 04:43:39;;;;;;;10.23;9.08;;;;;;;25.33;20.47;97948.73;1737139;82;20912;-60
2022/01/28 04:51:16;;;;;;;10.85;9.65;;;;;;;25.36;21.73;97936.43;1736213;81;20947;-59
2022/01/28 05:25:09;;;;;;;11.05;9.68;;;;;;;25.37;20.44;97915.70;1757943;80;21113;-60
2022/01/28 05:27:11;;;;;;;10.40;9.33;;;;;;;25.40;20.37;97909.66;1754710;80;20930;-63
2022/01/28 05:29:36;;;;;;;10.28;9.18;;;;;;;25.38;20.40;97915.97;1759188;80;20894;-60
2022/01/28 05:32:04;;;;;;;9.95;8.95;;;;;;;25.36;20.39;97912.75;1756696;81;20882;-61
2022/01/28 05:34:33;;;;;;;9.33;8.43;;;;;;;25.30;20.46;97904.42;1728322;80;45350;-60
2022/01/28 05:36:59;;;;;;;9.20;8.30;;;;;;;25.24;20.42;97915.14;1747695;80;21119;-60
2022/01/28 05:39:26;;;;;;;9.80;8.55;;;;;;;25.25;20.49;97915.41;1758425;81;20891;-60
2022/01/28 05:41:52;;;;;;;10.13;8.05;;;;;;;25.41;20.30;97909.11;1748451;81;20974;-59
2022/01/28 05:44:20;;;;;;;8.78;7.85;;;;;;;25.29;20.41;97907.45;1749813;80;21090;-61
2022/01/28 05:46:47;;;;;;;9.08;8.18;;;;;;;25.27;20.40;97902.30;1758613;80;21016;-61
2022/01/28 05:49:13;;;;;;;9.18;8.28;;;;;;;25.31;20.30;97903.88;1758799;81;21136;-61
2022/01/28 05:51:41;;;;;;;10.70;8.33;;;;;;;25.29;20.34;97906.88;1755875;81;21577;-60
2022/01/28 05:54:07;;;;;;;7.80;6.97;;;;;;;25.34;20.29;97910.08;1727986;83;21591;-61
2022/01/28 05:56:34;;;;;;;8.63;7.70;;;;;;;25.35;20.29;97902.14;1752777;81;20875;-60
2022/01/28 05:59:00;;;;;;;11.75;9.20;;;;;;;25.41;20.19;97906.38;1749067;80;20934;-62
2022/01/28 06:01:27;;;;;;;10.03;9.03;;;;;;;25.38;20.22;97896.91;1750943;81;21638;-61
2022/01/28 06:03:53;;;;;;;8.80;7.90;;;;;;;25.40;20.19;97899.31;1750126;81;20894;-61
2022/01/28 06:06:22;;;;;;;9.13;7.83;;;;;;;25.36;20.22;97901.86;1787949;79;20981;-59
2022/01/28 06:08:52;;;;;;;8.45;7.55;;;;;;;25.43;20.15;97902.80;1787017;80;21562;-59
2022/01/28 06:11:19;;;;;;;9.20;8.10;;;;;;;25.48;20.12;97898.64;1788152;78;21484;-61
2022/01/28 06:13:46;;;;;;;9.08;7.83;;;;;;;25.52;20.05;97903.74;1788267;78;21145;-61
2022/01/28 06:16:14;;;;;;;7.75;7.00;;;;;;;25.49;20.11;97896.17;1788152;78;20982;-59
2022/01/28 06:18:40;;;;;;;9.60;8.25;;;;;;;25.55;20.08;97902.56;1786965;80;20919;-60
2022/01/28 06:21:07;;;;;;;8.40;7.50;;;;;;;25.71;19.93;97901.12;1787822;80;20978;-62
2022/01/28 06:23:34;;;;;;;9.30;7.75;;;;;;;25.54;20.05;97894.16;1788242;78;20848;-59
2022/01/28 06:26:02;;;;;;;8.78;7.83;;;;;;;25.49;20.12;97896.17;1788086;80;21109;-60
2022/01/28 06:28:28;;;;;;;10.43;7.70;;;;;;;25.49;20.16;97894.27;1787220;79;20938;-62
2022/01/28 06:30:54;;;;;;;9.23;8.05;;;;;;;25.32;20.28;97893.22;1786802;80;20919;-62
2022/01/28 06:33:21;;;;;;;9.95;8.28;;;;;;;16.74;30.79;97922.18;1787619;80;20974;-60
2022/01/28 06:35:47;;;;;;;10.70;8.78;;;;;;;14.80;34.18;97922.88;1787246;78;21025;-61
2022/01/28 06:38:14;;;;;;;9.23;7.90;;;;;;;14.30;35.46;97929.69;1744336;80;21056;-62
2022/01/28 06:40:41;;;;;;;9.10;7.58;;;;;;;14.11;36.07;97932.15;1787758;79;21441;-61
2022/01/28 06:43:09;;;;;;;8.73;7.58;;;;;;;13.94;36.63;97940.55;1787677;80;21069;-62
2022/01/28 06:45:39;;;;;;;9.25;7.87;;;;;;;13.88;36.87;97920.89;1788801;78;21233;-61
2022/01/28 06:48:07;;;;;;;9.73;7.65;;;;;;;13.83;37.12;97925.28;1778159;78;20871;-63
2022/01/28 06:50:34;;;;;;;8.55;7.70;;;;;;;13.79;37.29;97919.56;1787172;80;21114;-62
2022/01/28 06:53:00;;;;;;;7.78;6.97;;;;;;;13.77;37.50;97924.84;1780352;79;20887;-61
2022/01/28 06:55:27;;;;;;;8.58;7.47;;;;;;;13.51;38.01;97924.19;1787749;79;20951;-63
2022/01/28 06:57:55;;;;;;;8.65;7.80;;;;;;;13.42;38.31;97922.89;1768328;80;21550;-64
2022/01/28 07:00:21;;;;;;;9.93;7.95;;;;;;;13.45;38.38;97920.28;1780770;78;20880;-61
2022/01/28 07:02:50;;;;;;;8.33;7.10;;;;;;;13.47;38.39;97917.68;1787703;80;21236;-62
2022/01/28 07:05:16;;;;;;;9.20;7.10;;;;;;;13.47;38.45;97915.52;1787642;79;20911;-61
2022/01/28 07:07:43;;;;;;;8.53;7.67;;;;;;;13.46;38.51;97909.36;1770930;80;20913;-62
2022/01/28 07:10:09;;;;;;;7.55;6.55;;;;;;;13.50;38.52;97899.84;1783885;78;20981;-63
2022/01/28 07:12:37;;;;;;;8.03;7.22;;;;;;;13.54;38.53;97903.70;1788170;78;20927;-62
2022/01/28 07:15:05;;;;;;;7.08;6.35;;;;;;;13.53;38.60;97890.03;1788567;78;21322;-59
2022/01/28 07:17:31;;;;;;;8.75;7.12;;;;;;;13.52;38.72;97896.44;1787597;79;20876;-60
2022/01/28 07:19:58;;;;;;;9.13;7.10;;;;;;;13.53;38.75;97889.25;1786363;78;21010;-59
2022/01/28 07:22:25;;;;;;;7.50;5.90;;;;;;;13.55;38.70;97900.00;1787949;79;20989;-60
2022/01/28 07:24:51;;;;;;;8.45;7.25;;;;;;;13.51;38.81;97890.80;1774378;80;21551;-61
2022/01/28 07:27:19;;;;;;;8.95;7.17;;;;;;;13.50;38.83;97886.48;1788327;78;21138;-60
2022/01/28 07:29:48;;;;;;;8.30;5.92;;;;;;;13.55;38.83;97890.65;1770562;79;20845;-61
2022/01/28 07:32:15;;;;;;;8.48;6.35;;;;;;;13.59;38.71;97891.81;1772141;78;20941;-61
2022/01/28 07:34:41;;;;;;;6.97;5.62;;;;;;;13.67;38.56;97891.19;1758401;80;20936;-60
2022/01/28 07:37:08;;;;;;;6.70;6.03;;;;;;;13.69;38.45;97885.12;1778813;78;20923;-61
2022/01/28 07:39:34;;;;;;;7.60;6.55;;;;;;;13.71;38.44;97889.19;1787306;78;21830;-61
2022/01/28 07:42:01;;;;;;;6.37;5.58;;;;;;;14.54;37.06;97875.70;1783568;78;21437;-62
2022/01/28 07:44:30;;;;;;;7.03;5.60;;;;;;;14.97;35.93;97877.42;1787945;80;20971;-61
2022/01/28 07:46:56;;;;;;;7.55;6.15;;;;;;;15.01;35.77;97877.78;1775628;80;20903;-61
2022/01/28 07:49:22;;;;;;;6.50;5.37;;;;;;;15.06;35.70;97881.89;1775476;80;20948;-58
2022/01/28 07:51:48;;;;;;;7.40;6.33;;;;;;;15.31;35.24;97870.33;1783479;78;21215;-62
2022/01/28 07:54:15;;;;;;;6.87;6.12;;;;;;;15.47;35.11;97862.09;1787400;78;20915;-62
2022/01/28 07:56:43;;;;;;;7.25;6.20;;;;;;;15.56;34.88;97866.84;1788349;78;20887;-65
2022/01/28 07:59:09;;;;;;;7.92;6.45;;;;;;;15.61;34.80;97858.07;1788310;78;20958;-64
2022/01/28 08:01:36;;;;;;;8.00;5.92;;;;;;;15.63;34.65;97866.67;1770333;79;20944;-62
2022/01/28 08:04:02;;;;;;;7.45;6.65;;;;;;;15.56;34.73;97854.78;1766910;79;21114;-60
2022/01/28 08:06:30;;;;;;;7.67;6.45;;;;;;;15.53;36.22;97847.22;1761309;79;20995;-60
2022/01/28 08:08:59;;;;;;;10.50;7.42;;;;;;;15.46;35.00;97852.44;1772743;79;20888;-61
2022/01/28 08:11:25;;;;;;;10.35;7.90;;;;;;;15.39;35.10;97849.34;1769991;79;20939;-61
2022/01/28 08:13:53;;;;;;;10.58;8.70;;;;;;;15.38;35.14;97849.59;1760622;79;21034;-62
2022/01/28 08:16:19;;;;;;;9.33;7.45;;;;;;;15.34;35.24;97849.25;1773397;79;21137;-61
2022/01/28 08:18:46;;;;;;;13.18;8.35;;;;;;;15.31;35.33;97839.52;1773623;79;20883;-62
2022/01/28 08:21:12;;;;;;;11.18;8.25;;;;;;;15.26;35.52;97847.47;1774664;79;20991;-63
2022/01/28 08:23:39;;;;;;;8.35;6.97;;;;;;;15.23;35.63;97840.73;1765216;79;21107;-62
2022/01/28 08:26:06;;;;;;;8.80;7.70;;;;;;;15.27;35.66;97841.89;1773177;79;20911;-61
2022/01/28 08:28:32;;;;;;;7.65;6.42;;;;;;;15.29;35.67;97839.78;1772893;79;23350;-61
2022/01/28 08:30:59;;;;;;;7.08;6.37;;;;;;;15.35;35.69;97839.35;1773242;79;21011;-61
2022/01/28 08:33:26;;;;;;;8.40;6.62;;;;;;;15.41;35.62;97831.67;1760614;79;20993;-61
2022/01/28 08:35:53;;;;;;;6.90;5.50;;;;;;;15.37;35.70;97839.91;1760929;79;21003;-62
2022/01/28 08:38:30;;;;;;;6.60;5.62;;;;;;;15.30;35.74;97828.55;1759064;79;21271;-62
2022/01/28 08:40:56;;;;;;;6.35;5.70;;;;;;;15.25;35.93;97837.83;1756202;79;21094;-61
2022/01/28 08:43:23;;;;;;;7.40;5.55;;;;;;;15.26;35.92;97825.52;1755551;79;20994;-62
2022/01/28 08:45:49;;;;;;;7.70;5.72;;;;;;;15.33;35.92;97824.84;1745477;79;21026;-61
2022/01/28 08:48:15;;;;;;;6.17;5.50;;;;;;;15.32;36.00;97819.73;1746728;79;21492;-62
2022/01/28 08:50:42;;;;;;;7.80;5.65;;;;;;;15.31;36.07;97824.27;1753241;79;20884;-57
2022/01/28 08:53:10;;;;;;;7.25;5.25;;;;;;;15.31;36.11;97822.11;1751288;79;22080;-61
2022/01/28 08:55:40;;;;;;;6.22;5.60;;;;;;;15.29;36.23;97823.70;1749965;79;20980;-61
2022/01/28 08:58:08;;;;;;;6.08;5.33;;;;;;;15.34;36.22;97817.62;1751078;79;21078;-61
2022/01/28 09:00:34;;;;;;;6.67;5.62;;;;;;;15.39;36.20;97823.89;1771250;79;21136;-64
2022/01/28 09:03:00;;;;;;;6.53;5.83;;;;;;;15.37;36.23;97815.80;1790169;80;20958;-60
2022/01/28 09:05:28;;;;;;;6.78;5.22;;;;;;;15.39;36.29;97815.03;1790216;80;23353;-62
2022/01/28 09:07:56;;;;;;;6.30;5.65;;;;;;;15.47;36.18;97814.67;1789649;78;21037;-61
2022/01/28 09:10:30;;;;;;;8.65;6.78;;;;;;;15.42;36.11;97806.52;1761513;79;21058;-61
2022/01/28 09:15:26;;;;;;;7.25;6.35;;;;;;;15.31;36.26;97802.84;1759166;79;21015;-62
2022/01/28 09:17:53;;;;;;;6.83;5.62;;;;;;;15.28;36.35;97802.49;1761091;78;21778;-60
2022/01/28 09:20:21;;;;;;;7.28;6.08;;;;;;;15.26;36.42;97793.89;1760130;79;21034;-61
2022/01/28 09:22:48;;;;;;;9.20;6.33;;;;;;;15.24;36.50;97794.66;1764299;79;20962;-60
2022/01/28 09:25:15;;;;;;;6.92;5.75;;;;;;;15.21;36.56;97789.27;1790326;80;22025;-61
2022/01/28 09:27:41;;;;;;;8.00;6.50;;;;;;;15.15;36.64;97793.41;1772158;78;20995;-59
2022/01/28 09:30:09;;;;;;;8.60;6.30;;;;;;;15.26;36.46;97784.00;1766374;79;21149;-60
2022/01/28 09:32:36;;;;;;;6.47;5.22;;;;;;;15.24;36.57;97789.31;1767562;79;20875;-61
2022/01/28 09:35:02;;;;;;;5.45;4.72;;;;;;;15.26;36.56;97769.78;1767615;79;20903;-61
2022/01/28 09:37:29;;;;;;;6.70;5.37;;;;;;;15.24;36.60;97770.56;1766002;79;20985;-60
2022/01/28 09:39:56;;;;;;;6.15;4.87;;;;;;;15.26;36.65;97773.28;1780788;79;20998;-59
2022/01/28 09:42:27;;;;;;;6.72;5.05;;;;;;;15.27;36.61;97770.08;1790860;78;21132;-62
2022/01/28 09:44:51;;;;;;;5.30;4.58;;;;;;;15.27;36.67;97762.05;1789946;79;22107;-62
2022/01/28 09:47:17;;;;;;;5.42;4.78;;;;;;;15.32;36.50;97764.29;1790244;80;21047;-60
2022/01/28 09:49:43;;;;;;;4.42;3.67;;;;;;;15.32;36.56;97764.29;1790774;78;20910;-61
2022/01/28 09:52:11;;;;;;;5.97;4.15;;;;;;;15.29;36.66;97762.61;1790314;79;20978;-61
2022/01/28 09:54:38;;;;;;;4.15;3.35;;;;;;;15.32;37.37;97758.93;1790251;79;21157;-60
2022/01/28 09:57:06;;;;;;;4.00;3.60;;;;;;;15.32;37.36;97749.55;1790833;78;21397;-60
2022/01/28 09:59:33;;;;;;;5.37;4.17;;;;;;;15.28;37.46;97748.39;1771749;79;20993;-62
2022/01/28 10:02:00;;;;;;;4.87;3.50;;;;;;;15.33;37.90;97744.46;1761278;79;21500;-63
2022/01/28 10:04:26;;;;;;;4.37;3.92;;;;;;;15.36;38.06;97727.09;1760521;78;20923;-65
2022/01/28 10:06:54;;;;;;;4.97;3.77;;;;;;;15.38;38.27;97738.40;1762124;78;21313;-63
2022/01/28 10:09:23;;;;;;;5.97;4.15;;;;;;;15.37;38.48;97726.86;1764758;78;21034;-60
2022/01/28 10:11:52;;;;;;;4.28;3.65;;;;;;;15.39;38.83;97731.45;1761522;79;20991;-63
2022/01/28 10:14:24;;;;;;;3.65;3.12;;;;;;;15.39;38.69;97724.75;1760277;78;21026;-61
2022/01/28 10:17:00;;;;;;;3.95;3.52;;;;;;;15.44;38.58;97730.19;1785477;80;20880;-60
2022/01/28 10:19:27;;;;;;;4.50;3.55;;;;;;;15.49;38.52;97732.16;1783163;78;21124;-60
2022/01/28 10:21:54;;;;;;;4.42;3.45;;;;;;;15.47;38.42;97726.24;1767919;80;21039;-59
2022/01/28 10:24:28;;;;;;;4.10;3.33;;;;;;;15.43;38.64;97718.39;1779141;79;20981;-61
2022/01/28 10:27:05;;;;;;;3.77;3.22;;;;;;;15.39;38.64;97719.39;1775693;78;20978;-62
2022/01/28 10:29:38;;;;;;;4.70;3.50;;;;;;;15.42;38.84;97716.75;1780850;78;20919;-61
2022/01/28 10:32:07;;;;;;;4.45;3.52;;;;;;;15.40;39.01;97710.83;1777303;80;21166;-62
2022/01/28 10:34:44;;;;;;;5.62;3.10;;;;;;;15.52;39.41;97711.58;1779585;79;21056;-61
2022/01/28 10:37:25;;;;;;;4.42;3.27;;;;;;;15.64;39.07;97710.17;1778100;78;20899;-63
2022/01/28 10:40:01;;;;;;;3.10;2.72;;;;;;;15.64;38.93;97711.52;1778556;79;21034;-64
2022/01/28 10:42:44;;;;;;;3.35;3.05;;;;;;;15.64;39.03;97708.30;1779483;78;20982;-63
2022/01/28 10:45:14;;;;;;;4.40;3.55;;;;;;;15.63;39.55;97719.26;1765369;78;21171;-62
2022/01/28 10:47:49;;;;;;;4.28;3.70;;;;;;;15.65;39.83;97708.58;1767741;78;20994;-62
2022/01/28 10:50:36;;;;;;;3.80;3.17;;;;;;;15.65;40.05;97712.59;1764656;79;21449;-63
2022/01/28 10:53:07;;;;;;;3.98;3.00;;;;;;;15.71;39.75;97705.45;1764684;79;20859;-63
2022/01/28 10:55:37;;;;;;;3.35;3.05;;;;;;;15.77;39.86;97711.17;1766532;78;20879;-64
2022/01/28 10:58:09;;;;;;;3.10;2.30;;;;;;;15.76;39.69;97708.20;1770377;79;21763;-62
2022/01/28 11:00:41;;;;;;;3.72;3.02;;;;;;;15.78;38.95;97703.39;1776190;78;21552;-63
2022/01/28 11:03:10;;;;;;;4.55;3.50;;;;;;;15.82;38.52;97705.36;1769714;78;21006;-63
2022/01/28 11:05:37;;;;;;;3.35;3.05;;;;;;;15.75;38.34;97702.55;1769634;78;20942;-62
2022/01/28 11:08:06;;;;;;;4.03;2.50;;;;;;;15.79;38.00;97700.48;1769561;78;21417;-63
2022/01/28 11:10:33;;;;;;;3.15;2.60;;;;;;;15.85;37.67;97706.73;1768661;78;21078;-64
2022/01/28 11:13:01;;;;;;;3.33;2.67;;;;;;;15.85;37.51;97714.23;1780799;79;20913;-67
2022/01/28 11:15:28;;;;;;;2.95;2.30;;;;;;;15.82;38.25;97712.06;1790505;80;20998;-62
2022/01/28 11:17:55;;;;;;;3.77;2.70;;;;;;;15.82;39.09;97712.59;1781055;79;20969;-65
2022/01/28 11:20:22;;;;;;;4.10;3.02;;;;;;;15.84;39.29;97713.97;1790378;80;20891;-63
2022/01/28 11:23:27;;;;;;;3.25;2.35;;;;;;;15.85;39.40;97704.84;1784288;78;22044;-65
2022/01/28 11:26:37;;;;;;;3.20;2.52;;;;;;;15.70;64.55;97718.55;1771263;79;20946;-63
2022/01/28 11:29:26;;;;;;;3.40;2.60;;;;;;;16.43;73.56;97714.20;1766844;78;20922;-63
2022/01/28 11:32:14;;;;;;;2.65;2.10;;;;;;;16.59;50.73;97714.18;1780491;78;21011;-60
2022/01/28 11:35:02;;;;;;;2.47;2.27;;;;;;;16.60;46.14;97715.00;1788010;78;20895;-59
2022/01/28 11:37:32;;;;;;;3.08;2.62;;;;;;;16.61;44.99;97717.94;1787133;78;21139;-60
2022/01/28 11:40:09;;;;;;;4.53;2.72;;;;;;;16.53;43.88;97723.75;1777835;80;21542;-61
2022/01/28 11:42:36;;;;;;;2.50;2.30;;;;;;;16.42;43.47;97721.99;1789476;78;21354;-62
2022/01/28 11:45:07;;;;;;;5.58;2.98;;;;;;;16.31;42.95;97720.23;1769582;78;20951;-64
2022/01/28 11:47:59;;;;;;;3.50;2.75;;;;;;;16.41;42.61;97731.09;1791148;78;20926;-64
2022/01/28 11:50:23;;;;;;;3.87;3.10;;;;;;;16.48;42.26;97733.05;1789797;79;21225;-64
2022/01/28 11:52:55;;;;;;;3.72;2.83;;;;;;;16.44;42.33;97730.59;1790320;80;20992;-61
2022/01/28 11:55:28;;;;;;;5.35;4.20;;;;;;;16.40;42.16;97731.62;1783654;78;21047;-62
2022/01/28 11:58:09;;;;;;;5.25;4.05;;;;;;;16.38;42.05;97730.24;1771495;79;21504;-61
2022/01/28 12:00:40;;;;;;;5.65;3.60;;;;;;;16.50;41.96;97740.34;1769015;78;20932;-62
2022/01/28 12:03:24;;;;;;;6.15;4.40;;;;;;;16.59;41.94;97734.84;1757902;79;21121;-62
2022/01/28 12:06:08;;;;;;;7.15;5.20;;;;;;;16.65;41.87;97730.64;1755058;79;21033;-62
2022/01/28 12:08:34;;;;;;;10.10;5.87;;;;;;;16.62;41.41;97730.31;1752247;79;20951;-63
2022/01/28 12:11:06;;;;;;;4.40;3.33;;;;;;;16.64;41.55;97739.74;1753972;79;20952;-62
2022/01/28 12:14:00;;;;;;;4.75;3.33;;;;;;;16.67;41.38;97734.40;1756163;79;20924;-64
2022/01/28 12:16:30;;;;;;;4.08;3.65;;;;;;;16.65;41.21;97740.03;1750556;79;20923;-63
2022/01/28 12:18:58;;;;;;;7.53;6.30;;;;;;;16.63;41.12;97731.95;1761293;81;20923;-62
2022/01/28 12:21:34;;;;;;;4.08;3.52;;;;;;;16.64;41.12;97730.87;1773840;79;20931;-62
2022/01/28 12:24:25;;;;;;;4.50;3.45;;;;;;;16.68;40.66;97731.45;1773456;81;20900;-62
2022/01/28 12:27:04;;;;;;;4.33;3.25;;;;;;;16.64;40.54;97726.84;1774698;79;21536;-63
2022/01/28 12:29:36;;;;;;;4.87;3.33;;;;;;;16.61;40.34;97741.58;1763488;79;21142;-63
2022/01/28 12:32:04;;;;;;;5.95;3.55;;;;;;;16.46;40.75;97739.20;1762682;81;20924;-64
2022/01/28 12:34:31;;;;;;;5.37;3.80;;;;;;;16.45;40.47;97726.31;1769075;79;21055;-64
2022/01/28 12:36:58;;;;;;;4.17;3.27;;;;;;;16.35;39.66;97729.39;1775385;79;21027;-64
2022/01/28 12:39:35;;;;;;;3.70;3.20;;;;;;;16.25;39.22;97732.77;1765649;79;20983;-65
2022/01/28 12:42:12;;;;;;;3.83;2.85;;;;;;;16.26;38.92;97737.09;1762476;79;25660;-64
2022/01/28 12:44:33;;;;;;;3.25;2.95;;;;;;;16.25;38.51;97726.58;1767254;79;21506;-63
2022/01/28 12:47:03;;;;;;;3.65;3.10;;;;;;;16.20;38.08;97734.56;1761497;79;21650;-62
2022/01/28 12:49:33;;;;;;;4.28;3.27;;;;;;;16.20;37.87;97733.23;1762788;79;20967;-65
2022/01/28 12:52:05;;;;;;;4.90;3.65;;;;;;;16.14;37.84;97741.73;1759663;79;21002;-64
2022/01/28 12:54:40;;;;;;;5.03;3.60;;;;;;;15.04;39.84;97742.89;1768228;79;21147;-68
2022/01/28 12:57:09;;;;;;;3.95;3.55;;;;;;;14.90;40.46;97744.75;1775931;79;21051;-65
2022/01/28 12:59:38;;;;;;;3.67;2.90;;;;;;;15.12;41.35;97746.49;1774701;79;20848;-62